sensor_id;sensor_type;location;lat;lon;timestamp;temperature;humidity
66257;DHT22;53049;43.446;3.698;2023-11-19T00:00:16;9.40;99.90
66257;DHT22;53049;43.446;3.698;2023-11-19T00:02:42;9.40;99.90
66257;DHT22;53049;43.446;3.698;2023-11-19T00:05:08;9.40;99.90
66257;DHT22;53049;43.446;3.698;2023-11-19T00:07:37;9.40;99.90
66257;DHT22;53049;43.446;3.698;2023-11-19T00:12:37;9.40;99.90
66257;DHT22;53049;43.446;3.698;2023-11-19T00:15:03;9.40;99.90
66257;DHT22;53049;43.446;3.698;2023-11-19T00:17:29;9.40;99.90
66257;DHT22;53049;43.446;3.698;2023-11-19T00:19:54;9.30;99.90
66257;DHT22;53049;43.446;3.698;2023-11-19T00:22:20;9.30;99.90
66257;DHT22;53049;43.446;3.698;2023-11-19T00:24:47;9.30;99.90
66257;DHT22;53049;43.446;3.698;2023-11-19T00:27:13;9.30;99.90
66257;DHT22;53049;43.446;3.698;2023-11-19T00:29:38;9.30;99.90
66257;DHT22;53049;43.446;3.698;2023-11-19T00:32:05;9.30;99.90
66257;DHT22;53049;43.446;3.698;2023-11-19T00:34:31;9.40;99.90
66257;DHT22;53049;43.446;3.698;2023-11-19T00:36:56;9.40;99.90
66257;DHT22;53049;43.446;3.698;2023-11-19T00:39:22;9.40;99.90
66257;DHT22;53049;43.446;3.698;2023-11-19T00:41:48;9.40;99.90
66257;DHT22;53049;43.446;3.698;2023-11-19T00:44:13;9.40;99.90
66257;DHT22;53049;43.446;3.698;2023-11-19T00:46:39;9.30;99.90
66257;DHT22;53049;43.446;3.698;2023-11-19T00:49:05;9.20;99.90
66257;DHT22;53049;43.446;3.698;2023-11-19T00:51:31;9.30;99.90
66257;DHT22;53049;43.446;3.698;2023-11-19T00:54:00;9.30;99.90
66257;DHT22;53049;43.446;3.698;2023-11-19T00:56:26;9.30;99.90
66257;DHT22;53049;43.446;3.698;2023-11-19T00:58:53;9.30;99.90
66257;DHT22;53049;43.446;3.698;2023-11-19T01:01:19;9.40;99.90
66257;DHT22;53049;43.446;3.698;2023-11-19T01:03:45;9.40;99.90
66257;DHT22;53049;43.446;3.698;2023-11-19T01:06:10;9.20;99.90
66257;DHT22;53049;43.446;3.698;2023-11-19T01:08:36;9.20;99.90
66257;DHT22;53049;43.446;3.698;2023-11-19T01:11:02;9.30;99.90
66257;DHT22;53049;43.446;3.698;2023-11-19T01:13:28;9.30;99.90
66257;DHT22;53049;43.446;3.698;2023-11-19T01:15:53;9.40;99.90
66257;DHT22;53049;43.446;3.698;2023-11-19T01:18:21;9.30;99.90
66257;DHT22;53049;43.446;3.698;2023-11-19T01:20:47;9.30;99.90
66257;DHT22;53049;43.446;3.698;2023-11-19T01:23:13;9.30;99.90
66257;DHT22;53049;43.446;3.698;2023-11-19T01:25:38;9.30;99.90
66257;DHT22;53049;43.446;3.698;2023-11-19T01:28:04;9.10;99.90
66257;DHT22;53049;43.446;3.698;2023-11-19T01:30:30;9.10;99.90
66257;DHT22;53049;43.446;3.698;2023-11-19T01:32:56;9.10;99.90
66257;DHT22;53049;43.446;3.698;2023-11-19T01:35:22;9.10;99.90
66257;DHT22;53049;43.446;3.698;2023-11-19T01:37:48;9.10;99.90
66257;DHT22;53049;43.446;3.698;2023-11-19T01:40:20;9.10;99.90
66257;DHT22;53049;43.446;3.698;2023-11-19T01:42:46;9.10;99.90
66257;DHT22;53049;43.446;3.698;2023-11-19T01:45:26;9.10;99.90
66257;DHT22;53049;43.446;3.698;2023-11-19T01:47:53;9.20;99.90
66257;DHT22;53049;43.446;3.698;2023-11-19T01:50:19;9.30;99.90
66257;DHT22;53049;43.446;3.698;2023-11-19T01:52:45;9.40;99.90
66257;DHT22;53049;43.446;3.698;2023-11-19T01:55:11;9.40;99.90
66257;DHT22;53049;43.446;3.698;2023-11-19T01:57:38;9.40;99.90
66257;DHT22;53049;43.446;3.698;2023-11-19T02:00:07;9.30;99.90
66257;DHT22;53049;43.446;3.698;2023-11-19T02:02:37;9.20;99.90
66257;DHT22;53049;43.446;3.698;2023-11-19T02:05:03;9.20;99.90
66257;DHT22;53049;43.446;3.698;2023-11-19T02:07:29;9.20;99.90
66257;DHT22;53049;43.446;3.698;2023-11-19T02:09:55;9.10;99.90
66257;DHT22;53049;43.446;3.698;2023-11-19T02:12:20;9.10;99.90
66257;DHT22;53049;43.446;3.698;2023-11-19T02:14:46;9.10;99.90
66257;DHT22;53049;43.446;3.698;2023-11-19T02:17:30;9.00;99.90
66257;DHT22;53049;43.446;3.698;2023-11-19T02:20:00;9.00;99.90
66257;DHT22;53049;43.446;3.698;2023-11-19T02:22:25;9.00;99.90
66257;DHT22;53049;43.446;3.698;2023-11-19T02:24:54;9.00;99.90
66257;DHT22;53049;43.446;3.698;2023-11-19T02:30:11;9.10;99.90
66257;DHT22;53049;43.446;3.698;2023-11-19T02:32:37;9.00;99.90
66257;DHT22;53049;43.446;3.698;2023-11-19T02:35:06;9.10;99.90
66257;DHT22;53049;43.446;3.698;2023-11-19T02:37:34;9.20;99.90
66257;DHT22;53049;43.446;3.698;2023-11-19T02:40:00;9.20;99.90
66257;DHT22;53049;43.446;3.698;2023-11-19T02:42:29;9.20;99.90
66257;DHT22;53049;43.446;3.698;2023-11-19T02:44:55;9.30;99.90
66257;DHT22;53049;43.446;3.698;2023-11-19T02:47:21;9.30;99.90
66257;DHT22;53049;43.446;3.698;2023-11-19T02:49:49;9.20;99.90
66257;DHT22;53049;43.446;3.698;2023-11-19T02:52:15;9.20;99.90
66257;DHT22;53049;43.446;3.698;2023-11-19T02:54:42;9.10;99.90
66257;DHT22;53049;43.446;3.698;2023-11-19T02:57:08;9.00;99.90
66257;DHT22;53049;43.446;3.698;2023-11-19T02:59:38;8.90;99.90
66257;DHT22;53049;43.446;3.698;2023-11-19T03:02:05;8.80;99.90
66257;DHT22;53049;43.446;3.698;2023-11-19T03:04:41;8.70;99.90
66257;DHT22;53049;43.446;3.698;2023-11-19T03:07:09;8.70;99.90
66257;DHT22;53049;43.446;3.698;2023-11-19T03:09:35;8.60;99.90
66257;DHT22;53049;43.446;3.698;2023-11-19T03:12:01;8.60;99.90
66257;DHT22;53049;43.446;3.698;2023-11-19T03:14:27;8.60;99.90
66257;DHT22;53049;43.446;3.698;2023-11-19T03:16:53;8.60;99.90
66257;DHT22;53049;43.446;3.698;2023-11-19T03:19:19;8.60;99.90
66257;DHT22;53049;43.446;3.698;2023-11-19T03:21:44;8.70;99.90
66257;DHT22;53049;43.446;3.698;2023-11-19T03:24:12;8.60;99.90
66257;DHT22;53049;43.446;3.698;2023-11-19T03:26:38;8.60;99.90
66257;DHT22;53049;43.446;3.698;2023-11-19T03:29:04;8.60;99.90
66257;DHT22;53049;43.446;3.698;2023-11-19T03:31:30;8.60;99.90
66257;DHT22;53049;43.446;3.698;2023-11-19T03:33:56;8.60;99.90
66257;DHT22;53049;43.446;3.698;2023-11-19T03:36:22;8.50;99.90
66257;DHT22;53049;43.446;3.698;2023-11-19T03:38:48;8.50;99.90
66257;DHT22;53049;43.446;3.698;2023-11-19T03:41:14;8.50;99.90
66257;DHT22;53049;43.446;3.698;2023-11-19T03:43:41;8.40;99.90
66257;DHT22;53049;43.446;3.698;2023-11-19T03:46:19;8.40;99.90
66257;DHT22;53049;43.446;3.698;2023-11-19T03:48:49;8.40;99.90
66257;DHT22;53049;43.446;3.698;2023-11-19T03:51:15;8.50;99.90
66257;DHT22;53049;43.446;3.698;2023-11-19T03:53:47;8.50;99.90
66257;DHT22;53049;43.446;3.698;2023-11-19T03:56:13;8.50;99.90
66257;DHT22;53049;43.446;3.698;2023-11-19T03:58:39;8.50;99.90
66257;DHT22;53049;43.446;3.698;2023-11-19T04:01:05;8.50;99.90
66257;DHT22;53049;43.446;3.698;2023-11-19T04:03:31;8.50;99.90
66257;DHT22;53049;43.446;3.698;2023-11-19T04:05:57;8.50;99.90
66257;DHT22;53049;43.446;3.698;2023-11-19T04:08:23;8.40;99.90
66257;DHT22;53049;43.446;3.698;2023-11-19T04:10:48;8.50;99.90
66257;DHT22;53049;43.446;3.698;2023-11-19T04:13:14;8.50;99.90
66257;DHT22;53049;43.446;3.698;2023-11-19T04:15:40;8.60;99.90
66257;DHT22;53049;43.446;3.698;2023-11-19T04:18:07;8.60;99.90
66257;DHT22;53049;43.446;3.698;2023-11-19T04:20:32;8.80;99.90
66257;DHT22;53049;43.446;3.698;2023-11-19T04:22:58;8.80;99.90
66257;DHT22;53049;43.446;3.698;2023-11-19T04:25:26;8.80;99.90
66257;DHT22;53049;43.446;3.698;2023-11-19T04:27:51;8.80;99.90
66257;DHT22;53049;43.446;3.698;2023-11-19T04:30:17;8.80;99.90
66257;DHT22;53049;43.446;3.698;2023-11-19T04:32:44;8.80;99.90
66257;DHT22;53049;43.446;3.698;2023-11-19T04:35:10;8.80;99.90
66257;DHT22;53049;43.446;3.698;2023-11-19T04:37:36;8.80;99.90
66257;DHT22;53049;43.446;3.698;2023-11-19T04:40:02;8.80;99.90
66257;DHT22;53049;43.446;3.698;2023-11-19T04:42:28;8.80;99.90
66257;DHT22;53049;43.446;3.698;2023-11-19T04:44:55;8.80;99.90
66257;DHT22;53049;43.446;3.698;2023-11-19T04:47:21;8.80;99.90
66257;DHT22;53049;43.446;3.698;2023-11-19T04:49:46;8.80;99.90
66257;DHT22;53049;43.446;3.698;2023-11-19T04:52:12;8.70;99.90
66257;DHT22;53049;43.446;3.698;2023-11-19T04:54:44;8.60;99.90
66257;DHT22;53049;43.446;3.698;2023-11-19T04:57:10;8.50;99.90
66257;DHT22;53049;43.446;3.698;2023-11-19T04:59:38;8.50;99.90
66257;DHT22;53049;43.446;3.698;2023-11-19T05:02:04;8.50;99.90
66257;DHT22;53049;43.446;3.698;2023-11-19T05:04:31;8.50;99.90
66257;DHT22;53049;43.446;3.698;2023-11-19T05:06:56;8.60;99.90
66257;DHT22;53049;43.446;3.698;2023-11-19T05:09:22;8.60;99.90
66257;DHT22;53049;43.446;3.698;2023-11-19T05:11:48;8.60;99.90
66257;DHT22;53049;43.446;3.698;2023-11-19T05:14:14;8.60;99.90
66257;DHT22;53049;43.446;3.698;2023-11-19T05:16:40;8.70;99.90
66257;DHT22;53049;43.446;3.698;2023-11-19T05:19:06;8.70;99.90
66257;DHT22;53049;43.446;3.698;2023-11-19T05:21:32;8.90;99.90
66257;DHT22;53049;43.446;3.698;2023-11-19T05:23:58;8.90;99.90
66257;DHT22;53049;43.446;3.698;2023-11-19T05:26:24;8.90;99.90
66257;DHT22;53049;43.446;3.698;2023-11-19T05:28:50;8.80;99.90
66257;DHT22;53049;43.446;3.698;2023-11-19T05:31:17;8.80;99.90
66257;DHT22;53049;43.446;3.698;2023-11-19T05:33:43;8.80;99.90
66257;DHT22;53049;43.446;3.698;2023-11-19T05:36:11;8.90;99.90
66257;DHT22;53049;43.446;3.698;2023-11-19T05:38:38;8.90;99.90
66257;DHT22;53049;43.446;3.698;2023-11-19T05:41:04;8.90;99.90
66257;DHT22;53049;43.446;3.698;2023-11-19T05:43:30;8.90;99.90
66257;DHT22;53049;43.446;3.698;2023-11-19T05:45:56;8.90;99.90
66257;DHT22;53049;43.446;3.698;2023-11-19T05:48:22;9.00;99.90
66257;DHT22;53049;43.446;3.698;2023-11-19T05:50:48;9.00;99.90
66257;DHT22;53049;43.446;3.698;2023-11-19T05:53:15;8.90;99.90
66257;DHT22;53049;43.446;3.698;2023-11-19T05:55:41;9.00;99.90
66257;DHT22;53049;43.446;3.698;2023-11-19T05:58:27;9.00;99.90
66257;DHT22;53049;43.446;3.698;2023-11-19T06:00:58;9.00;99.90
66257;DHT22;53049;43.446;3.698;2023-11-19T06:03:26;8.90;99.90
66257;DHT22;53049;43.446;3.698;2023-11-19T06:05:52;8.90;99.90
66257;DHT22;53049;43.446;3.698;2023-11-19T06:08:18;8.90;99.90
66257;DHT22;53049;43.446;3.698;2023-11-19T06:10:46;8.90;99.90
66257;DHT22;53049;43.446;3.698;2023-11-19T06:13:14;8.90;99.90
66257;DHT22;53049;43.446;3.698;2023-11-19T06:15:41;8.80;99.90
66257;DHT22;53049;43.446;3.698;2023-11-19T06:18:07;8.80;99.90
66257;DHT22;53049;43.446;3.698;2023-11-19T06:20:33;8.80;99.90
66257;DHT22;53049;43.446;3.698;2023-11-19T06:23:00;8.90;99.90
66257;DHT22;53049;43.446;3.698;2023-11-19T06:25:26;8.90;99.90
66257;DHT22;53049;43.446;3.698;2023-11-19T06:27:52;9.00;99.90
66257;DHT22;53049;43.446;3.698;2023-11-19T06:30:18;8.90;99.90
66257;DHT22;53049;43.446;3.698;2023-11-19T06:32:44;8.90;99.90
66257;DHT22;53049;43.446;3.698;2023-11-19T06:35:10;8.80;99.90
66257;DHT22;53049;43.446;3.698;2023-11-19T06:37:38;8.80;99.90
66257;DHT22;53049;43.446;3.698;2023-11-19T06:40:04;8.80;99.90
66257;DHT22;53049;43.446;3.698;2023-11-19T06:42:31;8.80;99.90
66257;DHT22;53049;43.446;3.698;2023-11-19T06:44:56;8.80;99.90
66257;DHT22;53049;43.446;3.698;2023-11-19T06:47:28;8.80;99.90
66257;DHT22;53049;43.446;3.698;2023-11-19T06:49:54;8.80;99.90
66257;DHT22;53049;43.446;3.698;2023-11-19T06:52:20;8.70;99.90
66257;DHT22;53049;43.446;3.698;2023-11-19T06:54:46;8.80;99.90
66257;DHT22;53049;43.446;3.698;2023-11-19T06:57:13;8.90;99.90
66257;DHT22;53049;43.446;3.698;2023-11-19T06:59:38;8.90;99.90
66257;DHT22;53049;43.446;3.698;2023-11-19T07:02:05;8.90;99.90
66257;DHT22;53049;43.446;3.698;2023-11-19T07:04:31;9.00;99.90
66257;DHT22;53049;43.446;3.698;2023-11-19T07:06:57;8.90;99.90
66257;DHT22;53049;43.446;3.698;2023-11-19T07:09:22;8.90;99.90
66257;DHT22;53049;43.446;3.698;2023-11-19T07:11:49;8.90;99.90
66257;DHT22;53049;43.446;3.698;2023-11-19T07:14:17;8.90;99.90
66257;DHT22;53049;43.446;3.698;2023-11-19T07:16:43;8.90;99.90
66257;DHT22;53049;43.446;3.698;2023-11-19T07:19:09;9.00;99.90
66257;DHT22;53049;43.446;3.698;2023-11-19T07:21:35;9.00;99.90
66257;DHT22;53049;43.446;3.698;2023-11-19T07:24:05;9.00;99.90
66257;DHT22;53049;43.446;3.698;2023-11-19T07:26:31;9.10;99.90
66257;DHT22;53049;43.446;3.698;2023-11-19T07:28:57;9.20;99.90
66257;DHT22;53049;43.446;3.698;2023-11-19T07:31:23;9.30;99.90
66257;DHT22;53049;43.446;3.698;2023-11-19T07:33:49;9.30;99.90
66257;DHT22;53049;43.446;3.698;2023-11-19T07:36:15;9.40;99.90
66257;DHT22;53049;43.446;3.698;2023-11-19T07:38:41;9.40;99.90
66257;DHT22;53049;43.446;3.698;2023-11-19T07:41:07;9.40;99.90
66257;DHT22;53049;43.446;3.698;2023-11-19T07:43:34;9.50;99.90
66257;DHT22;53049;43.446;3.698;2023-11-19T07:46:00;9.50;99.90
66257;DHT22;53049;43.446;3.698;2023-11-19T07:48:25;9.60;99.90
66257;DHT22;53049;43.446;3.698;2023-11-19T07:50:52;9.70;99.90
66257;DHT22;53049;43.446;3.698;2023-11-19T07:53:19;9.70;99.90
66257;DHT22;53049;43.446;3.698;2023-11-19T07:55:45;9.80;99.90
66257;DHT22;53049;43.446;3.698;2023-11-19T07:58:11;9.80;99.90
66257;DHT22;53049;43.446;3.698;2023-11-19T08:00:38;9.80;99.90
66257;DHT22;53049;43.446;3.698;2023-11-19T08:03:04;9.80;99.90
66257;DHT22;53049;43.446;3.698;2023-11-19T08:05:31;9.90;99.90
66257;DHT22;53049;43.446;3.698;2023-11-19T08:07:57;9.80;99.90
66257;DHT22;53049;43.446;3.698;2023-11-19T08:10:23;9.90;99.90
66257;DHT22;53049;43.446;3.698;2023-11-19T08:12:49;9.80;99.90
66257;DHT22;53049;43.446;3.698;2023-11-19T08:15:15;9.90;99.90
66257;DHT22;53049;43.446;3.698;2023-11-19T08:17:43;9.90;99.90
66257;DHT22;53049;43.446;3.698;2023-11-19T08:20:10;9.90;99.90
66257;DHT22;53049;43.446;3.698;2023-11-19T08:22:36;9.90;99.90
66257;DHT22;53049;43.446;3.698;2023-11-19T08:25:04;9.90;99.90
66257;DHT22;53049;43.446;3.698;2023-11-19T08:27:30;10.00;99.90
66257;DHT22;53049;43.446;3.698;2023-11-19T08:29:58;9.90;99.90
66257;DHT22;53049;43.446;3.698;2023-11-19T08:32:25;10.00;99.90
66257;DHT22;53049;43.446;3.698;2023-11-19T08:34:51;10.10;99.90
66257;DHT22;53049;43.446;3.698;2023-11-19T08:37:16;10.20;99.90
66257;DHT22;53049;43.446;3.698;2023-11-19T08:39:52;10.30;99.90
66257;DHT22;53049;43.446;3.698;2023-11-19T08:42:17;10.40;99.90
66257;DHT22;53049;43.446;3.698;2023-11-19T08:44:43;10.50;99.90
66257;DHT22;53049;43.446;3.698;2023-11-19T08:47:12;10.60;99.90
66257;DHT22;53049;43.446;3.698;2023-11-19T08:49:41;10.70;99.90
66257;DHT22;53049;43.446;3.698;2023-11-19T08:52:07;10.80;99.90
66257;DHT22;53049;43.446;3.698;2023-11-19T08:54:33;10.90;99.90
66257;DHT22;53049;43.446;3.698;2023-11-19T08:56:59;10.90;99.90
66257;DHT22;53049;43.446;3.698;2023-11-19T08:59:25;10.90;99.90
66257;DHT22;53049;43.446;3.698;2023-11-19T09:01:51;11.00;99.90
66257;DHT22;53049;43.446;3.698;2023-11-19T09:04:17;11.10;99.90
66257;DHT22;53049;43.446;3.698;2023-11-19T09:06:42;11.10;99.90
66257;DHT22;53049;43.446;3.698;2023-11-19T09:09:09;11.20;99.90
66257;DHT22;53049;43.446;3.698;2023-11-19T09:11:35;11.20;99.90
66257;DHT22;53049;43.446;3.698;2023-11-19T09:14:02;11.30;99.90
66257;DHT22;53049;43.446;3.698;2023-11-19T09:16:28;11.30;99.90
66257;DHT22;53049;43.446;3.698;2023-11-19T09:18:53;11.50;99.90
66257;DHT22;53049;43.446;3.698;2023-11-19T09:21:19;11.70;99.90
66257;DHT22;53049;43.446;3.698;2023-11-19T09:23:45;12.10;99.90
66257;DHT22;53049;43.446;3.698;2023-11-19T09:26:13;12.60;99.90
66257;DHT22;53049;43.446;3.698;2023-11-19T09:28:39;13.00;99.90
66257;DHT22;53049;43.446;3.698;2023-11-19T09:31:16;13.40;99.90
66257;DHT22;53049;43.446;3.698;2023-11-19T09:33:43;13.50;99.90
66257;DHT22;53049;43.446;3.698;2023-11-19T09:36:10;13.90;99.90
66257;DHT22;53049;43.446;3.698;2023-11-19T09:38:42;14.00;99.90
66257;DHT22;53049;43.446;3.698;2023-11-19T09:41:09;14.20;99.90
66257;DHT22;53049;43.446;3.698;2023-11-19T09:43:37;14.30;99.90
66257;DHT22;53049;43.446;3.698;2023-11-19T09:46:07;14.40;99.90
66257;DHT22;53049;43.446;3.698;2023-11-19T09:48:37;14.60;99.90
66257;DHT22;53049;43.446;3.698;2023-11-19T09:51:04;14.70;99.90
66257;DHT22;53049;43.446;3.698;2023-11-19T09:53:30;14.50;99.90
66257;DHT22;53049;43.446;3.698;2023-11-19T09:55:59;14.60;99.90
66257;DHT22;53049;43.446;3.698;2023-11-19T09:58:26;14.70;99.90
66257;DHT22;53049;43.446;3.698;2023-11-19T10:00:51;14.60;99.90
66257;DHT22;53049;43.446;3.698;2023-11-19T10:03:17;14.90;99.90
66257;DHT22;53049;43.446;3.698;2023-11-19T10:05:43;15.10;99.90
66257;DHT22;53049;43.446;3.698;2023-11-19T10:08:09;15.00;99.90
66257;DHT22;53049;43.446;3.698;2023-11-19T10:10:37;15.10;99.90
66257;DHT22;53049;43.446;3.698;2023-11-19T10:13:03;15.30;99.90
66257;DHT22;53049;43.446;3.698;2023-11-19T10:15:33;15.40;99.90
66257;DHT22;53049;43.446;3.698;2023-11-19T10:18:00;15.40;99.90
66257;DHT22;53049;43.446;3.698;2023-11-19T10:20:26;15.50;99.90
66257;DHT22;53049;43.446;3.698;2023-11-19T10:22:55;15.80;99.90
66257;DHT22;53049;43.446;3.698;2023-11-19T10:25:22;15.70;99.90
66257;DHT22;53049;43.446;3.698;2023-11-19T10:27:49;15.60;99.90
66257;DHT22;53049;43.446;3.698;2023-11-19T10:30:23;15.60;99.90
66257;DHT22;53049;43.446;3.698;2023-11-19T10:35:57;15.90;99.90
66257;DHT22;53049;43.446;3.698;2023-11-19T10:38:23;15.90;99.90
66257;DHT22;53049;43.446;3.698;2023-11-19T10:40:50;16.00;99.90
66257;DHT22;53049;43.446;3.698;2023-11-19T10:43:17;16.10;99.90
66257;DHT22;53049;43.446;3.698;2023-11-19T10:45:43;16.20;99.90
66257;DHT22;53049;43.446;3.698;2023-11-19T10:48:09;16.30;99.90
66257;DHT22;53049;43.446;3.698;2023-11-19T10:50:40;16.20;99.90
66257;DHT22;53049;43.446;3.698;2023-11-19T10:53:08;16.30;99.90
66257;DHT22;53049;43.446;3.698;2023-11-19T10:55:36;16.30;99.90
66257;DHT22;53049;43.446;3.698;2023-11-19T10:58:05;16.40;99.90
66257;DHT22;53049;43.446;3.698;2023-11-19T11:00:38;16.60;99.90
66257;DHT22;53049;43.446;3.698;2023-11-19T11:03:25;16.60;99.90
66257;DHT22;53049;43.446;3.698;2023-11-19T11:05:53;16.80;99.90
66257;DHT22;53049;43.446;3.698;2023-11-19T11:08:20;17.00;99.90
66257;DHT22;53049;43.446;3.698;2023-11-19T11:10:55;17.20;99.90
66257;DHT22;53049;43.446;3.698;2023-11-19T11:13:22;17.40;99.90
66257;DHT22;53049;43.446;3.698;2023-11-19T11:15:48;17.40;99.90
66257;DHT22;53049;43.446;3.698;2023-11-19T11:18:15;17.40;99.90
66257;DHT22;53049;43.446;3.698;2023-11-19T11:20:44;17.40;99.90
66257;DHT22;53049;43.446;3.698;2023-11-19T11:33:54;17.90;99.90
66257;DHT22;53049;43.446;3.698;2023-11-19T11:36:22;18.00;99.90
66257;DHT22;53049;43.446;3.698;2023-11-19T11:38:49;18.10;99.90
66257;DHT22;53049;43.446;3.698;2023-11-19T11:41:19;18.00;99.90
66257;DHT22;53049;43.446;3.698;2023-11-19T11:43:55;18.10;99.90
66257;DHT22;53049;43.446;3.698;2023-11-19T11:49:02;18.10;99.90
66257;DHT22;53049;43.446;3.698;2023-11-19T11:57:03;17.90;99.90
66257;DHT22;53049;43.446;3.698;2023-11-19T12:02:11;18.30;99.90
66257;DHT22;53049;43.446;3.698;2023-11-19T12:04:38;18.50;99.90
66257;DHT22;53049;43.446;3.698;2023-11-19T12:07:18;18.50;99.90
66257;DHT22;53049;43.446;3.698;2023-11-19T12:09:48;18.50;99.90
66257;DHT22;53049;43.446;3.698;2023-11-19T12:12:18;18.40;99.90
66257;DHT22;53049;43.446;3.698;2023-11-19T12:15:04;18.40;99.90
66257;DHT22;53049;43.446;3.698;2023-11-19T12:17:49;18.50;99.90
66257;DHT22;53049;43.446;3.698;2023-11-19T12:20:16;18.50;99.90
66257;DHT22;53049;43.446;3.698;2023-11-19T12:22:44;18.60;99.90
66257;DHT22;53049;43.446;3.698;2023-11-19T12:25:11;18.60;99.90
66257;DHT22;53049;43.446;3.698;2023-11-19T12:27:40;18.60;99.90
66257;DHT22;53049;43.446;3.698;2023-11-19T12:30:06;18.50;99.90
66257;DHT22;53049;43.446;3.698;2023-11-19T12:32:42;18.60;99.90
66257;DHT22;53049;43.446;3.698;2023-11-19T12:35:09;18.60;99.90
66257;DHT22;53049;43.446;3.698;2023-11-19T12:40:22;18.70;99.90
66257;DHT22;53049;43.446;3.698;2023-11-19T12:42:48;18.70;99.90
66257;DHT22;53049;43.446;3.698;2023-11-19T12:45:15;18.80;99.90
66257;DHT22;53049;43.446;3.698;2023-11-19T12:47:42;18.90;99.90
66257;DHT22;53049;43.446;3.698;2023-11-19T12:50:09;19.00;99.90
66257;DHT22;53049;43.446;3.698;2023-11-19T12:52:35;19.10;99.90
66257;DHT22;53049;43.446;3.698;2023-11-19T12:55:05;19.10;99.90
66257;DHT22;53049;43.446;3.698;2023-11-19T12:57:49;19.10;99.90
66257;DHT22;53049;43.446;3.698;2023-11-19T13:00:25;19.10;99.90
66257;DHT22;53049;43.446;3.698;2023-11-19T13:02:53;19.10;99.90
66257;DHT22;53049;43.446;3.698;2023-11-19T13:05:30;19.10;99.90
66257;DHT22;53049;43.446;3.698;2023-11-19T13:08:08;19.10;99.90
66257;DHT22;53049;43.446;3.698;2023-11-19T13:13:15;19.20;99.90
66257;DHT22;53049;43.446;3.698;2023-11-19T13:15:40;19.30;99.90
66257;DHT22;53049;43.446;3.698;2023-11-19T13:18:06;19.30;99.90
66257;DHT22;53049;43.446;3.698;2023-11-19T13:20:32;19.30;99.90
66257;DHT22;53049;43.446;3.698;2023-11-19T13:23:00;19.40;99.90
66257;DHT22;53049;43.446;3.698;2023-11-19T13:25:29;19.40;99.90
66257;DHT22;53049;43.446;3.698;2023-11-19T13:27:55;19.40;99.90
66257;DHT22;53049;43.446;3.698;2023-11-19T13:30:22;19.50;99.90
66257;DHT22;53049;43.446;3.698;2023-11-19T13:32:49;19.50;99.90
66257;DHT22;53049;43.446;3.698;2023-11-19T13:35:15;19.60;99.90
66257;DHT22;53049;43.446;3.698;2023-11-19T13:37:42;19.60;99.90
66257;DHT22;53049;43.446;3.698;2023-11-19T13:40:09;19.60;99.90
66257;DHT22;53049;43.446;3.698;2023-11-19T13:42:38;19.60;99.90
66257;DHT22;53049;43.446;3.698;2023-11-19T13:45:11;19.50;99.90
66257;DHT22;53049;43.446;3.698;2023-11-19T13:47:45;19.60;99.90
66257;DHT22;53049;43.446;3.698;2023-11-19T13:50:13;19.50;99.90
66257;DHT22;53049;43.446;3.698;2023-11-19T13:52:40;19.50;99.90
66257;DHT22;53049;43.446;3.698;2023-11-19T13:55:09;19.50;99.90
66257;DHT22;53049;43.446;3.698;2023-11-19T13:57:37;19.60;99.90
66257;DHT22;53049;43.446;3.698;2023-11-19T14:00:03;19.60;99.90
66257;DHT22;53049;43.446;3.698;2023-11-19T14:02:35;19.60;99.90
66257;DHT22;53049;43.446;3.698;2023-11-19T14:05:02;19.60;99.90
66257;DHT22;53049;43.446;3.698;2023-11-19T14:07:28;19.60;99.90
66257;DHT22;53049;43.446;3.698;2023-11-19T14:09:54;19.60;99.90
66257;DHT22;53049;43.446;3.698;2023-11-19T14:12:20;19.70;99.90
66257;DHT22;53049;43.446;3.698;2023-11-19T14:14:46;19.60;99.90
66257;DHT22;53049;43.446;3.698;2023-11-19T14:17:11;19.60;99.90
66257;DHT22;53049;43.446;3.698;2023-11-19T14:19:38;19.60;99.90
66257;DHT22;53049;43.446;3.698;2023-11-19T14:22:05;19.60;99.90
66257;DHT22;53049;43.446;3.698;2023-11-19T14:24:31;19.60;99.90
66257;DHT22;53049;43.446;3.698;2023-11-19T14:26:56;19.70;99.90
66257;DHT22;53049;43.446;3.698;2023-11-19T14:29:24;19.60;99.90
66257;DHT22;53049;43.446;3.698;2023-11-19T14:31:51;19.60;99.90
66257;DHT22;53049;43.446;3.698;2023-11-19T14:34:19;19.70;99.90
66257;DHT22;53049;43.446;3.698;2023-11-19T14:36:45;19.70;99.90
66257;DHT22;53049;43.446;3.698;2023-11-19T14:39:10;19.70;99.90
66257;DHT22;53049;43.446;3.698;2023-11-19T14:41:36;19.60;99.90
66257;DHT22;53049;43.446;3.698;2023-11-19T14:44:02;19.60;99.90
66257;DHT22;53049;43.446;3.698;2023-11-19T14:46:29;19.70;99.90
66257;DHT22;53049;43.446;3.698;2023-11-19T14:48:55;19.70;99.90
66257;DHT22;53049;43.446;3.698;2023-11-19T14:51:20;19.60;99.90
66257;DHT22;53049;43.446;3.698;2023-11-19T14:53:47;19.60;99.90
66257;DHT22;53049;43.446;3.698;2023-11-19T14:56:12;19.60;99.90
66257;DHT22;53049;43.446;3.698;2023-11-19T14:58:39;19.60;99.90
66257;DHT22;53049;43.446;3.698;2023-11-19T15:01:05;19.60;99.90
66257;DHT22;53049;43.446;3.698;2023-11-19T15:03:31;19.50;99.90
66257;DHT22;53049;43.446;3.698;2023-11-19T15:05:58;19.50;99.90
66257;DHT22;53049;43.446;3.698;2023-11-19T15:08:23;19.60;99.90
66257;DHT22;53049;43.446;3.698;2023-11-19T15:10:49;19.60;99.90
66257;DHT22;53049;43.446;3.698;2023-11-19T15:13:15;19.60;99.90
66257;DHT22;53049;43.446;3.698;2023-11-19T15:15:41;19.50;99.90
66257;DHT22;53049;43.446;3.698;2023-11-19T15:18:07;19.50;99.90
66257;DHT22;53049;43.446;3.698;2023-11-19T15:20:35;19.50;99.90
66257;DHT22;53049;43.446;3.698;2023-11-19T15:23:01;19.40;99.90
66257;DHT22;53049;43.446;3.698;2023-11-19T15:25:27;19.40;99.90
66257;DHT22;53049;43.446;3.698;2023-11-19T15:27:53;19.20;99.90
66257;DHT22;53049;43.446;3.698;2023-11-19T15:30:20;19.20;99.90
66257;DHT22;53049;43.446;3.698;2023-11-19T15:32:46;19.20;99.90
66257;DHT22;53049;43.446;3.698;2023-11-19T15:35:13;19.20;99.90
66257;DHT22;53049;43.446;3.698;2023-11-19T15:37:38;19.20;99.90
66257;DHT22;53049;43.446;3.698;2023-11-19T15:40:07;19.20;99.90
66257;DHT22;53049;43.446;3.698;2023-11-19T15:42:37;19.20;99.90
66257;DHT22;53049;43.446;3.698;2023-11-19T15:45:03;19.20;99.90
66257;DHT22;53049;43.446;3.698;2023-11-19T15:47:33;19.20;99.90
66257;DHT22;53049;43.446;3.698;2023-11-19T15:50:00;19.10;99.90
66257;DHT22;53049;43.446;3.698;2023-11-19T15:52:26;19.10;99.90
66257;DHT22;53049;43.446;3.698;2023-11-19T15:54:52;19.10;99.90
66257;DHT22;53049;43.446;3.698;2023-11-19T15:57:18;19.00;99.90
66257;DHT22;53049;43.446;3.698;2023-11-19T15:59:44;19.00;99.90
66257;DHT22;53049;43.446;3.698;2023-11-19T16:02:10;18.90;99.90
66257;DHT22;53049;43.446;3.698;2023-11-19T16:04:35;18.90;99.90
66257;DHT22;53049;43.446;3.698;2023-11-19T16:07:01;18.80;99.90
66257;DHT22;53049;43.446;3.698;2023-11-19T16:09:27;18.80;99.90
66257;DHT22;53049;43.446;3.698;2023-11-19T16:11:54;18.70;99.90
66257;DHT22;53049;43.446;3.698;2023-11-19T16:14:20;18.70;99.90